Dallas, Texas
Current Conditions -  °F | °C
As of 12:53 AM on Thursday 23 Oct 2014 (Local Time) from KDAL Reporting Station
Overcast Overcast  
Wind Chill: 21°   Ceiling: 16000
Heat Index: 21°   Visibility: 10mi
Dew Point: 12°   Wind: 8mph
Humidity: 55%   Direction: 120°ESE
Pressure: 30.1"   Gusts: NA
Location:  32.78°N, 96.79°W
Report Text: KDAL 230553Z 12007KT 10SM BKN160 OVC200 21/12 A3010 RMK AO2 SLP188 T02110117 10244 20211 402720172 58004
Loading
Personal Weather Stations






























Interactive Weather Map New forecast layout! Learn more

10-Day Weather Forecast

Advertisements
Track Severe Weather on mobile